Time;durP1;ratioP1;P1;durP2;ratioP2;P2;SDS_P1;SDS_P2;PMS_P1;PMS_P2;Temp;Humidity;BMP_temperature;BMP_pressure;BME280_temperature;BME280_humidity;BME280_pressure;Samples;Min_cycle;Max_cycle;Signal;HPM_P1;HPM_P2
2021/08/03 00:00:42;;;;;;;4.05;1.27;;;;;;;10.87;79.11;100077.94;5061861;28;20040;-76
2021/08/03 00:03:10;;;;;;;4.05;1.13;;;;;;;10.82;79.83;100081.09;5068992;28;20154;-76
2021/08/03 00:05:45;;;;;;;2.25;0.70;;;;;;;10.82;79.57;100076.56;5068210;28;20390;-77
2021/08/03 00:08:22;;;;;;;5.55;1.13;;;;;;;10.93;79.09;100082.72;5070746;28;20052;-77
2021/08/03 00:10:50;;;;;;;2.28;0.93;;;;;;;11.05;78.34;100086.91;5063445;28;20086;-77
2021/08/03 00:13:17;;;;;;;2.85;0.98;;;;;;;11.13;78.62;100087.84;5069534;28;20058;-76
2021/08/03 00:15:44;;;;;;;2.03;0.73;;;;;;;11.20;78.30;100085.38;5067652;28;20049;-78
2021/08/03 00:18:10;;;;;;;1.63;0.90;;;;;;;11.22;78.94;100085.22;5063859;28;20122;-77
2021/08/03 00:20:39;;;;;;;2.13;1.00;;;;;;;11.18;78.32;100095.44;5102284;22;20065;-61
2021/08/03 00:23:06;;;;;;;2.13;0.90;;;;;;;11.09;79.11;100090.97;5047569;28;20087;-60
2021/08/03 00:25:32;;;;;;;3.00;1.25;;;;;;;11.07;79.05;100088.44;5048516;28;20081;-62
2021/08/03 00:27:59;;;;;;;1.95;1.08;;;;;;;11.11;79.58;100094.31;5043212;28;20103;-63
2021/08/03 00:30:26;;;;;;;2.22;0.90;;;;;;;11.08;79.11;100095.47;5045066;28;20073;-62
2021/08/03 00:32:53;;;;;;;3.22;0.88;;;;;;;11.06;79.00;100093.94;5045289;28;20057;-60
2021/08/03 00:35:19;;;;;;;3.25;0.80;;;;;;;11.03;79.43;100097.78;5049393;28;20053;-60
2021/08/03 00:37:47;;;;;;;1.45;0.80;;;;;;;10.97;79.71;100101.06;5046304;28;20123;-61
2021/08/03 00:40:16;;;;;;;2.72;0.68;;;;;;;10.95;79.93;100099.53;5049215;28;20126;-62
2021/08/03 00:42:43;;;;;;;4.40;0.88;;;;;;;10.95;79.82;100099.53;5039978;28;20179;-61
2021/08/03 00:45:10;;;;;;;3.55;0.80;;;;;;;10.99;79.42;100092.84;5046220;28;20069;-63
2021/08/03 00:47:36;;;;;;;1.45;0.70;;;;;;;11.12;78.11;100091.50;5035722;28;20076;-61
2021/08/03 00:50:03;;;;;;;3.83;1.10;;;;;;;11.26;77.65;100089.31;5049704;28;20053;-61
2021/08/03 00:52:29;;;;;;;3.47;1.10;;;;;;;11.47;77.52;100088.97;5047867;28;20431;-62
2021/08/03 00:54:57;;;;;;;1.13;0.77;;;;;;;11.74;76.12;100086.22;5045265;28;20065;-58
2021/08/03 00:57:23;;;;;;;2.17;1.17;;;;;;;11.82;75.48;100090.84;5049847;28;20122;-61
2021/08/03 00:59:50;;;;;;;2.53;0.73;;;;;;;11.81;75.57;100095.38;5047621;28;20530;-62
2021/08/03 01:02:16;;;;;;;1.50;0.70;;;;;;;11.87;75.64;100092.06;5030155;28;20041;-60
2021/08/03 01:04:42;;;;;;;2.90;0.73;;;;;;;11.80;76.47;100093.69;5050129;28;20138;-61
2021/08/03 01:07:16;;;;;;;2.65;1.08;;;;;;;11.74;77.53;100090.75;5048120;28;20560;-62
2021/08/03 01:09:56;;;;;;;1.38;0.50;;;;;;;11.81;77.08;100089.16;5050473;28;20195;-61
2021/08/03 01:12:33;;;;;;;1.55;0.70;;;;;;;11.76;77.78;100096.81;5050200;28;20118;-61
2021/08/03 01:15:07;;;;;;;3.72;1.10;;;;;;;11.62;78.83;100095.53;5037123;28;20095;-62
2021/08/03 01:17:41;;;;;;;1.85;0.95;;;;;;;11.46;79.18;100095.38;5048009;28;20040;-61
2021/08/03 01:20:13;;;;;;;2.42;1.10;;;;;;;11.35;79.68;100099.13;5051152;28;20045;-62
2021/08/03 01:23:12;;;;;;;3.03;0.82;;;;;;;11.17;80.35;100096.44;5041352;28;20052;-60
2021/08/03 01:25:54;;;;;;;2.10;1.05;;;;;;;11.06;81.23;100102.00;5030288;28;20095;-60
2021/08/03 01:28:25;;;;;;;1.40;0.88;;;;;;;10.99;81.97;100103.59;5043643;28;20076;-60
2021/08/03 01:30:55;;;;;;;3.20;0.93;;;;;;;10.97;82.88;100116.31;5043749;28;20053;-61
2021/08/03 01:33:26;;;;;;;2.70;1.30;;;;;;;10.92;82.76;100118.63;5047594;28;20450;-62
2021/08/03 01:35:56;;;;;;;4.32;1.33;;;;;;;10.88;83.63;100119.91;5044419;28;20096;-60
2021/08/03 01:38:25;;;;;;;4.15;1.42;;;;;;;10.83;83.76;100123.88;5046415;28;20234;-61
2021/08/03 01:40:55;;;;;;;4.53;1.27;;;;;;;10.93;83.16;100126.53;5048676;28;20045;-61
2021/08/03 01:43:23;;;;;;;2.85;1.20;;;;;;;11.15;81.45;100119.91;5034037;28;20504;-62
2021/08/03 01:45:54;;;;;;;1.35;0.90;;;;;;;11.29;81.23;100118.53;5045739;28;20583;-62
2021/08/03 01:48:22;;;;;;;2.13;1.13;;;;;;;11.38;81.22;100115.81;5049218;28;20072;-61
2021/08/03 01:50:52;;;;;;;1.33;0.80;;;;;;;11.48;80.94;100121.06;5040714;28;20556;-60
2021/08/03 01:53:20;;;;;;;2.28;1.00;;;;;;;11.51;81.09;100119.94;5035904;28;20048;-61
2021/08/03 01:55:47;;;;;;;5.75;1.20;;;;;;;11.52;81.47;100116.25;5036347;28;20068;-63
2021/08/03 01:58:14;;;;;;;3.42;1.05;;;;;;;11.52;81.79;100116.25;5047478;28;20059;-62
2021/08/03 02:00:44;;;;;;;2.78;1.30;;;;;;;11.53;81.94;100124.16;5044655;28;20496;-63
2021/08/03 02:03:12;;;;;;;1.92;1.10;;;;;;;11.57;81.33;100122.84;5038680;28;20041;-62
2021/08/03 02:05:38;;;;;;;2.05;1.20;;;;;;;11.54;82.02;100123.16;5048456;28;20342;-59
2021/08/03 02:08:07;;;;;;;2.33;1.00;;;;;;;11.58;81.56;100121.00;5050120;28;20053;-58
2021/08/03 02:10:33;;;;;;;1.77;0.80;;;;;;;11.59;81.93;100125.38;5048552;28;20518;-63
2021/08/03 02:13:01;;;;;;;4.30;1.15;;;;;;;11.78;80.13;100130.63;5049528;28;20080;-63
2021/08/03 02:15:27;;;;;;;1.92;0.77;;;;;;;11.76;81.22;100132.63;5041308;28;20077;-63
2021/08/03 02:17:55;;;;;;;6.38;0.90;;;;;;;11.75;82.54;100138.16;5047866;28;20057;-62
2021/08/03 02:20:22;;;;;;;1.83;1.00;;;;;;;11.73;81.80;100135.63;5048399;28;20573;-61
2021/08/03 02:22:49;;;;;;;2.40;1.00;;;;;;;11.80;80.63;100128.63;5046345;28;20045;-58
2021/08/03 02:25:15;;;;;;;1.38;0.60;;;;;;;11.79;81.82;100137.72;5048059;28;20076;-60
2021/08/03 02:27:42;;;;;;;1.50;0.77;;;;;;;11.82;81.11;100144.63;5040059;28;20045;-63
2021/08/03 02:30:12;;;;;;;1.42;0.80;;;;;;;11.83;81.97;100135.53;5047431;28;20077;-60
2021/08/03 02:32:45;;;;;;;2.60;1.10;;;;;;;11.84;81.82;100145.31;5022170;28;20068;-63
2021/08/03 02:35:16;;;;;;;5.47;1.58;;;;;;;11.85;81.94;100136.25;5046290;28;20068;-63
2021/08/03 02:37:50;;;;;;;1.40;0.70;;;;;;;11.88;81.86;100142.16;5045766;28;20254;-61
2021/08/03 02:40:16;;;;;;;2.40;0.90;;;;;;;11.89;81.92;100129.56;5042094;28;20328;-62
2021/08/03 02:42:43;;;;;;;2.08;1.20;;;;;;;11.93;81.24;100125.56;5045902;28;20449;-59
2021/08/03 02:45:12;;;;;;;3.80;1.30;;;;;;;11.93;81.49;100131.78;5047682;28;20076;-61
2021/08/03 02:47:46;;;;;;;2.60;1.00;;;;;;;11.93;81.60;100147.06;5052454;22;20074;-61
2021/08/03 02:50:15;;;;;;;2.53;0.80;;;;;;;11.94;81.72;100133.47;5073219;28;20048;-60
2021/08/03 02:52:44;;;;;;;1.52;0.90;;;;;;;11.98;81.63;100134.88;5083206;28;20080;-61
2021/08/03 02:55:15;;;;;;;2.22;0.73;;;;;;;12.06;80.94;100133.22;5088426;28;20136;-61
2021/08/03 02:57:46;;;;;;;3.67;1.10;;;;;;;12.02;81.95;100138.06;5078580;28;20048;-61
2021/08/03 03:00:13;;;;;;;2.70;1.00;;;;;;;11.96;82.37;100134.19;5086433;28;20079;-63
2021/08/03 03:02:43;;;;;;;1.40;0.77;;;;;;;11.93;82.45;100134.47;5087349;28;20048;-60
2021/08/03 03:05:15;;;;;;;3.03;1.05;;;;;;;11.91;82.08;100131.09;5088691;28;20040;-63
2021/08/03 03:07:44;;;;;;;1.58;0.85;;;;;;;11.97;82.00;100133.19;5063379;28;20073;-60
2021/08/03 03:10:16;;;;;;;9.35;0.82;;;;;;;12.03;82.42;100137.06;5073121;28;20072;-62
2021/08/03 03:12:48;;;;;;;1.95;1.05;;;;;;;12.11;81.69;100136.31;5088793;28;20106;-61
2021/08/03 03:15:18;;;;;;;3.05;1.05;;;;;;;12.16;81.66;100142.03;5086052;28;20129;-62
2021/08/03 03:17:46;;;;;;;2.72;1.15;;;;;;;12.13;81.68;100143.22;5087251;28;20048;-62
2021/08/03 03:20:16;;;;;;;3.45;1.20;;;;;;;12.12;82.57;100148.75;5086735;28;20048;-62
2021/08/03 03:22:44;;;;;;;2.95;1.25;;;;;;;12.09;82.81;100143.69;5088628;28;20046;-61
2021/08/03 03:25:15;;;;;;;2.40;0.80;;;;;;;12.13;82.44;100153.13;5088058;28;20144;-63
2021/08/03 03:27:43;;;;;;;3.50;0.95;;;;;;;12.19;81.89;100147.94;5076040;28;20555;-62
2021/08/03 03:30:13;;;;;;;2.45;1.35;;;;;;;12.23;81.55;100156.56;5086968;28;20059;-65
2021/08/03 03:32:40;;;;;;;4.07;1.08;;;;;;;12.27;81.54;100149.88;5073272;28;20499;-61
2021/08/03 03:35:08;;;;;;;1.88;1.30;;;;;;;12.34;81.89;100155.47;5082015;28;20076;-62
2021/08/03 03:37:37;;;;;;;1.77;0.98;;;;;;;12.26;82.74;100154.41;5077546;28;20136;-60
2021/08/03 03:40:04;;;;;;;3.85;1.33;;;;;;;12.13;84.95;100151.28;5082177;28;20064;-63
2021/08/03 03:42:33;;;;;;;2.42;1.30;;;;;;;11.96;85.96;100146.78;5069235;28;20490;-62
2021/08/03 03:45:00;;;;;;;3.17;1.27;;;;;;;11.78;87.37;100145.91;5087255;28;20121;-64
2021/08/03 03:47:30;;;;;;;3.63;1.50;;;;;;;11.66;87.96;100147.97;5084751;28;20480;-63
2021/08/03 03:50:00;;;;;;;4.63;1.90;;;;;;;11.57;88.78;100147.03;5087080;28;20059;-60
2021/08/03 03:52:33;;;;;;;3.65;1.67;;;;;;;11.50;89.33;100151.34;5086383;28;20064;-61
2021/08/03 03:55:02;;;;;;;4.68;2.03;;;;;;;11.47;90.01;100150.78;5084261;28;20494;-58
2021/08/03 03:57:30;;;;;;;5.10;1.73;;;;;;;11.54;89.22;100150.03;5087173;28;20486;-64
2021/08/03 03:59:58;;;;;;;3.42;1.50;;;;;;;11.70;87.49;100157.41;5080082;28;20128;-62
2021/08/03 04:02:27;;;;;;;1.98;1.05;;;;;;;11.72;87.66;100158.13;5086417;28;20067;-60
2021/08/03 04:04:57;;;;;;;2.75;1.52;;;;;;;11.77;87.85;100155.81;5075399;28;20048;-61
2021/08/03 04:07:23;;;;;;;3.10;1.20;;;;;;;11.80;87.90;100160.91;5076461;28;20083;-61
2021/08/03 04:09:49;;;;;;;2.00;1.33;;;;;;;11.83;88.26;100163.28;5082577;28;20099;-62
2021/08/03 04:12:20;;;;;;;2.67;1.70;;;;;;;11.82;88.49;100156.22;5083566;28;20071;-58
2021/08/03 04:14:48;;;;;;;3.08;1.23;;;;;;;11.84;88.43;100161.44;5092566;28;20071;-62
2021/08/03 04:17:14;;;;;;;4.85;1.85;;;;;;;11.84;88.57;100165.00;5090275;28;20047;-61
2021/08/03 04:19:40;;;;;;;5.70;2.00;;;;;;;11.82;89.35;100164.28;5092774;28;20044;-63
2021/08/03 04:22:07;;;;;;;3.10;1.60;;;;;;;11.83;89.44;100167.81;5092242;28;20105;-60
2021/08/03 04:24:33;;;;;;;4.22;1.73;;;;;;;11.92;88.05;100161.53;5092107;28;20133;-62
2021/08/03 04:26:59;;;;;;;2.55;1.10;;;;;;;11.94;86.55;100165.75;5090904;28;20489;-61
2021/08/03 04:29:27;;;;;;;2.53;1.17;;;;;;;11.98;87.33;100169.81;5090928;28;20481;-65
2021/08/03 04:31:53;;;;;;;3.38;1.20;;;;;;;12.03;87.93;100173.88;5083147;28;20133;-62
2021/08/03 04:34:19;;;;;;;3.78;1.70;;;;;;;11.99;87.98;100167.97;5082909;28;20127;-63
2021/08/03 04:36:46;;;;;;;1.80;1.08;;;;;;;12.00;88.83;100166.97;5089973;28;20108;-60
2021/08/03 04:39:12;;;;;;;2.88;1.20;;;;;;;12.10;87.97;100165.06;5087601;28;20040;-63
2021/08/03 04:41:39;;;;;;;2.25;1.40;;;;;;;12.21;87.44;100169.34;5071582;28;20082;-60
2021/08/03 04:44:06;;;;;;;2.60;1.30;;;;;;;12.27;86.88;100171.41;5087655;28;20509;-62
2021/08/03 04:46:34;;;;;;;2.63;1.20;;;;;;;12.35;86.82;100165.25;5090904;28;20063;-61
2021/08/03 04:49:00;;;;;;;5.00;1.58;;;;;;;12.40;86.95;100176.34;5081648;28;20048;-62
2021/08/03 04:51:26;;;;;;;3.03;1.40;;;;;;;12.35;87.21;100176.00;5090430;28;20080;-64
2021/08/03 04:53:53;;;;;;;3.35;1.90;;;;;;;12.33;87.40;100180.69;5086906;28;20044;-61
2021/08/03 04:56:20;;;;;;;3.55;1.50;;;;;;;12.30;87.40;100176.44;5091601;28;20043;-61
2021/08/03 04:58:46;;;;;;;2.15;1.30;;;;;;;12.36;87.12;100181.22;5074187;28;20048;-62
2021/08/03 05:01:12;;;;;;;2.72;1.30;;;;;;;12.47;85.96;100172.06;5084008;28;20121;-63
2021/08/03 05:03:40;;;;;;;2.88;1.50;;;;;;;12.53;86.15;100180.31;5074221;28;20090;-64
2021/08/03 05:06:07;;;;;;;4.63;1.00;;;;;;;12.60;86.02;100177.84;5076433;28;20105;-62
2021/08/03 05:08:33;;;;;;;2.70;1.50;;;;;;;12.65;86.06;100174.66;5084534;28;20128;-63
2021/08/03 05:10:59;;;;;;;4.40;1.85;;;;;;;12.68;85.94;100169.00;5083425;28;20083;-64
2021/08/03 05:13:26;;;;;;;1.70;1.00;;;;;;;12.73;85.23;100167.50;5080206;28;20113;-63
2021/08/03 05:15:52;;;;;;;5.47;1.90;;;;;;;12.80;85.52;100175.78;5090221;28;20043;-61
2021/08/03 05:18:19;;;;;;;4.25;1.83;;;;;;;12.93;86.07;100178.03;5089213;28;20072;-62
2021/08/03 05:20:47;;;;;;;3.17;1.30;;;;;;;13.00;84.72;100174.53;5079274;28;20517;-63
2021/08/03 05:23:13;;;;;;;5.47;1.73;;;;;;;13.12;84.66;100173.22;5067681;28;20036;-61
2021/08/03 05:25:39;;;;;;;3.90;1.38;;;;;;;13.30;83.68;100172.34;5091527;28;20444;-60
2021/08/03 05:28:06;;;;;;;8.38;2.28;;;;;;;13.45;82.30;100163.44;5086477;28;20074;-61
2021/08/03 05:30:32;;;;;;;2.50;1.30;;;;;;;13.61;82.20;100165.31;5086317;28;20117;-62
2021/08/03 05:32:58;;;;;;;2.72;1.50;;;;;;;13.66;80.81;100164.84;5083449;28;20072;-62
2021/08/03 05:35:25;;;;;;;3.90;1.20;;;;;;;13.67;80.96;100167.38;5091552;28;20075;-63
2021/08/03 05:37:52;;;;;;;2.15;1.10;;;;;;;13.68;81.04;100169.06;5080645;28;20056;-63
2021/08/03 05:40:20;;;;;;;2.58;1.23;;;;;;;13.70;79.90;100169.72;5076524;28;20045;-63
2021/08/03 05:42:46;;;;;;;3.17;1.77;;;;;;;13.84;81.62;100178.16;5082975;28;20055;-61
2021/08/03 05:45:27;;;;;;;2.50;1.30;;;;;;;13.96;83.11;100176.84;5090815;28;20421;-64
2021/08/03 05:47:53;;;;;;;4.93;1.45;;;;;;;13.92;82.79;100172.78;5087175;28;20421;-62
2021/08/03 05:50:20;;;;;;;3.97;1.48;;;;;;;13.87;82.20;100180.56;5076687;28;20076;-63
2021/08/03 05:52:46;;;;;;;4.70;1.50;;;;;;;14.21;80.22;100181.25;5077205;28;20082;-63
2021/08/03 05:55:14;;;;;;;2.40;1.52;;;;;;;14.64;79.06;100173.78;5090199;28;20075;-60
2021/08/03 05:57:40;;;;;;;3.50;1.63;;;;;;;14.96;78.16;100174.72;5086462;28;20044;-63
2021/08/03 06:00:08;;;;;;;2.30;1.20;;;;;;;15.29;75.81;100179.00;5084752;28;20480;-63
2021/08/03 06:02:34;;;;;;;1.88;1.13;;;;;;;15.48;74.36;100173.13;5081339;28;20539;-60
2021/08/03 06:05:01;;;;;;;3.05;0.77;;;;;;;15.63;71.42;100172.44;5079770;28;20052;-61
2021/08/03 06:07:30;;;;;;;2.13;1.00;;;;;;;15.58;72.97;100161.25;5086014;28;20089;-62
2021/08/03 06:09:57;;;;;;;1.98;0.80;;;;;;;15.49;72.70;100166.69;5089295;28;20088;-63
2021/08/03 06:12:26;;;;;;;4.15;1.15;;;;;;;15.33;72.90;100174.06;5082736;28;20048;-64
2021/08/03 06:14:55;;;;;;;2.80;1.15;;;;;;;15.27;73.84;100172.88;5088132;28;20441;-64
2021/08/03 06:17:31;;;;;;;2.83;1.00;;;;;;;15.39;73.67;100171.50;5090155;28;20048;-62
2021/08/03 06:19:58;;;;;;;5.45;0.95;;;;;;;15.59;72.79;100171.03;5089423;28;20078;-63
2021/08/03 06:22:27;;;;;;;2.05;1.00;;;;;;;15.89;68.71;100170.22;5090087;28;20044;-60
2021/08/03 06:24:53;;;;;;;4.40;1.08;;;;;;;16.04;68.04;100159.44;5081374;28;20132;-60
2021/08/03 06:27:20;;;;;;;2.55;1.05;;;;;;;16.32;67.31;100162.41;5089550;28;20040;-59
2021/08/03 06:29:49;;;;;;;5.18;1.00;;;;;;;16.48;66.45;100166.84;5074312;28;20144;-62
2021/08/03 06:32:16;;;;;;;2.92;0.85;;;;;;;16.65;63.82;100166.47;5070511;28;20053;-63
2021/08/03 06:34:44;;;;;;;3.50;0.90;;;;;;;16.70;64.29;100168.69;5077888;28;20476;-61
2021/08/03 06:37:11;;;;;;;1.73;0.85;;;;;;;16.66;63.18;100159.19;5070095;28;20467;-61
2021/08/03 06:39:38;;;;;;;2.58;1.20;;;;;;;16.55;63.30;100165.06;5083810;28;20463;-62
2021/08/03 06:42:09;;;;;;;2.63;1.00;;;;;;;16.68;62.24;100162.59;5057587;28;20115;-60
2021/08/03 06:44:44;;;;;;;2.90;1.00;;;;;;;16.76;63.60;100169.78;5077713;28;20093;-63
2021/08/03 06:47:14;;;;;;;2.55;0.93;;;;;;;17.13;61.14;100168.84;5067487;28;20048;-61
2021/08/03 06:49:44;;;;;;;2.95;1.10;;;;;;;17.45;60.65;100173.03;5076281;28;20101;-61
2021/08/03 06:52:13;;;;;;;5.15;1.02;;;;;;;17.67;59.75;100168.47;5077917;28;20076;-63
2021/08/03 06:54:46;;;;;;;2.22;0.60;;;;;;;17.82;59.18;100167.41;5083209;28;20143;-62
2021/08/03 06:57:15;;;;;;;2.25;0.88;;;;;;;17.86;57.35;100162.44;5069261;28;20506;-62
2021/08/03 06:59:49;;;;;;;2.95;0.73;;;;;;;17.95;57.43;100164.00;5067815;28;20102;-61
2021/08/03 07:02:25;;;;;;;2.75;0.63;;;;;;;17.99;58.00;100168.00;5067100;28;20059;-60
2021/08/03 07:04:58;;;;;;;2.65;1.05;;;;;;;18.21;57.69;100170.72;5056205;28;20102;-59
2021/08/03 07:07:25;;;;;;;3.63;0.90;;;;;;;18.24;57.74;100162.19;5076398;28;20079;-64
2021/08/03 07:09:53;;;;;;;1.85;0.80;;;;;;;18.39;57.53;100168.38;5074123;28;20521;-62
2021/08/03 07:12:21;;;;;;;2.65;0.98;;;;;;;18.58;55.54;100172.25;5074952;28;20490;-61
2021/08/03 07:14:49;;;;;;;4.88;1.33;;;;;;;18.96;55.34;100176.34;5071758;28;20053;-63
2021/08/03 07:17:16;;;;;;;2.22;0.70;;;;;;;19.17;53.62;100178.09;5054465;28;20110;-61
2021/08/03 07:19:44;;;;;;;2.45;0.77;;;;;;;19.11;53.78;100173.47;5067313;28;20090;-61
2021/08/03 07:22:13;;;;;;;4.72;0.80;;;;;;;19.20;53.32;100172.28;5068234;28;20045;-62
2021/08/03 07:24:43;;;;;;;1.17;0.70;;;;;;;19.09;53.91;100180.19;5073368;28;20068;-61
2021/08/03 07:27:09;;;;;;;2.30;0.65;;;;;;;19.26;53.56;100179.63;5074264;28;20045;-61
2021/08/03 07:29:35;;;;;;;3.28;1.17;;;;;;;19.16;54.94;100181.03;5067864;28;20130;-62
2021/08/03 07:32:02;;;;;;;3.08;1.10;;;;;;;19.50;52.88;100183.69;5068478;28;20552;-60
2021/08/03 07:34:28;;;;;;;1.75;0.77;;;;;;;19.64;53.26;100184.63;5064502;28;20122;-62
2021/08/03 07:36:56;;;;;;;2.92;0.73;;;;;;;19.38;53.34;100182.59;5073797;28;20090;-62
2021/08/03 07:39:22;;;;;;;2.60;1.27;;;;;;;19.57;53.37;100183.78;5068867;28;20463;-62
2021/08/03 07:41:50;;;;;;;2.67;0.80;;;;;;;19.46;53.31;100177.00;5072060;28;20076;-59
2021/08/03 07:44:16;;;;;;;1.05;0.60;;;;;;;19.12;54.89;100175.16;5080992;28;20052;-61
2021/08/03 07:46:44;;;;;;;1.65;0.90;;;;;;;19.26;57.60;100178.78;5079182;28;20048;-62
2021/08/03 07:49:10;;;;;;;2.20;0.70;;;;;;;19.10;58.41;100181.84;5061343;28;20095;-60
2021/08/03 07:51:37;;;;;;;3.40;0.57;;;;;;;19.09;56.10;100186.44;5076752;28;20131;-63
2021/08/03 07:54:04;;;;;;;3.05;0.40;;;;;;;19.34;54.12;100185.94;5076273;28;20498;-61
2021/08/03 07:56:31;;;;;;;2.50;0.60;;;;;;;19.40;53.40;100176.97;5079849;28;20064;-61
2021/08/03 07:58:57;;;;;;;3.97;0.50;;;;;;;19.62;50.93;100178.53;5080285;28;20063;-62
2021/08/03 08:01:23;;;;;;;1.90;0.70;;;;;;;19.80;51.17;100170.66;5087516;28;20332;-60
2021/08/03 08:03:50;;;;;;;1.75;0.60;;;;;;;20.40;52.41;100168.00;5079680;28;21788;-63
2021/08/03 08:06:16;;;;;;;3.33;0.60;;;;;;;20.95;48.31;100169.41;5082485;28;20101;-62
2021/08/03 08:08:43;;;;;;;1.08;0.55;;;;;;;21.80;44.72;100164.69;5072445;28;20091;-60
2021/08/03 08:11:11;;;;;;;1.00;0.60;;;;;;;21.69;44.99;100165.38;5075269;28;20512;-61
2021/08/03 08:13:38;;;;;;;3.05;0.80;;;;;;;21.76;45.10;100165.34;5079182;28;20072;-62
2021/08/03 08:16:05;;;;;;;3.38;0.60;;;;;;;22.34;44.58;100163.28;5079981;28;20068;-60
2021/08/03 08:18:32;;;;;;;1.67;0.55;;;;;;;21.72;46.33;100167.69;5079436;28;20566;-62
2021/08/03 08:20:58;;;;;;;3.60;0.73;;;;;;;21.80;45.32;100159.22;5079559;28;20105;-62
2021/08/03 08:23:25;;;;;;;5.40;0.80;;;;;;;21.85;44.71;100156.66;5072333;28;20068;-62
2021/08/03 08:25:51;;;;;;;1.85;0.60;;;;;;;22.22;45.56;100159.59;5071150;28;20075;-62
2021/08/03 08:28:19;;;;;;;1.63;0.43;;;;;;;22.42;44.50;100154.81;5079915;28;20508;-62
2021/08/03 08:30:45;;;;;;;1.35;0.50;;;;;;;22.27;44.59;100158.94;5076130;28;21647;-64
2021/08/03 08:33:12;;;;;;;4.03;0.55;;;;;;;22.47;43.45;100165.06;5072585;28;20097;-61
2021/08/03 08:35:39;;;;;;;2.92;0.80;;;;;;;22.39;46.05;100157.16;5084010;28;20048;-61
2021/08/03 08:38:06;;;;;;;3.15;0.50;;;;;;;22.16;44.28;100153.13;5075996;28;20092;-62
2021/08/03 08:40:33;;;;;;;3.95;0.82;;;;;;;22.03;44.24;100161.41;5079056;28;20041;-62
2021/08/03 08:42:59;;;;;;;2.55;0.80;;;;;;;22.22;45.67;100154.13;5073939;28;20111;-62
2021/08/03 08:45:27;;;;;;;1.65;0.65;;;;;;;22.06;45.25;100151.94;5077322;28;20052;-61
2021/08/03 08:47:54;;;;;;;2.08;0.50;;;;;;;22.55;43.06;100147.53;5104962;22;20111;-62
2021/08/03 08:50:22;;;;;;;2.25;0.43;;;;;;;22.70;44.93;100139.81;5026299;28;20072;-62
2021/08/03 08:52:52;;;;;;;1.98;0.77;;;;;;;22.13;44.73;100149.97;5047133;28;20049;-62
2021/08/03 08:55:19;;;;;;;3.03;0.88;;;;;;;22.07;46.28;100143.53;5049965;28;20045;-62
2021/08/03 08:57:47;;;;;;;2.33;0.63;;;;;;;22.66;42.96;100147.66;5050218;28;20053;-62
2021/08/03 09:00:15;;;;;;;1.70;0.52;;;;;;;22.71;43.52;100141.50;5033162;28;20048;-61
2021/08/03 09:02:45;;;;;;;1.85;0.82;;;;;;;23.18;41.22;100144.59;5032933;28;20060;-63
2021/08/03 09:05:13;;;;;;;3.50;0.60;;;;;;;22.99;41.68;100135.56;5028687;28;20099;-66
2021/08/03 09:07:47;;;;;;;2.08;0.88;;;;;;;22.38;44.30;100133.63;5024202;28;20133;-65
2021/08/03 09:10:27;;;;;;;3.28;0.88;;;;;;;22.30;44.15;100137.47;5037331;28;20050;-64
2021/08/03 09:12:59;;;;;;;2.70;0.73;;;;;;;22.60;43.08;100132.13;5031471;28;20045;-62
2021/08/03 09:15:25;;;;;;;4.28;0.70;;;;;;;22.53;42.75;100138.75;5034038;28;20045;-62
2021/08/03 09:17:53;;;;;;;1.58;0.75;;;;;;;22.57;43.21;100132.59;5034392;28;20509;-62
2021/08/03 09:20:20;;;;;;;2.55;1.17;;;;;;;22.17;44.86;100137.56;5029927;28;20084;-63
2021/08/03 09:22:48;;;;;;;2.70;1.10;;;;;;;22.31;44.66;100133.66;5029927;28;20451;-61
2021/08/03 09:25:16;;;;;;;3.28;0.60;;;;;;;22.76;42.99;100134.28;5034073;28;20115;-61
2021/08/03 09:27:44;;;;;;;3.95;1.17;;;;;;;22.10;44.22;100137.59;5038236;28;20457;-62
2021/08/03 09:30:28;;;;;;;1.83;0.82;;;;;;;22.00;46.19;100141.84;5036124;28;20045;-63
2021/08/03 09:32:55;;;;;;;3.97;0.90;;;;;;;22.25;45.18;100140.00;5029900;28;20384;-63
2021/08/03 09:35:23;;;;;;;2.60;0.90;;;;;;;21.98;43.86;100146.72;5030720;28;20048;-63
2021/08/03 09:37:51;;;;;;;4.30;1.00;;;;;;;22.07;47.39;100148.16;5038086;28;20107;-60
2021/08/03 09:40:23;;;;;;;5.05;1.27;;;;;;;22.51;49.26;100143.59;5030448;28;20107;-64
2021/08/03 09:43:05;;;;;;;2.83;1.15;;;;;;;22.79;43.57;100141.19;5029930;28;20056;-61
2021/08/03 09:45:33;;;;;;;2.42;0.80;;;;;;;23.25;43.31;100140.72;5029315;28;20431;-64
2021/08/03 09:48:16;;;;;;;1.25;0.85;;;;;;;23.25;44.14;100139.88;5034438;28;20158;-62
2021/08/03 09:50:57;;;;;;;3.83;0.77;;;;;;;23.35;45.55;100145.66;5046853;28;20560;-62
2021/08/03 09:53:52;;;;;;;1.73;0.80;;;;;;;22.91;43.60;100139.41;5024748;28;20085;-62
2021/08/03 09:56:20;;;;;;;2.78;1.02;;;;;;;23.03;44.66;100134.88;4988744;28;20054;-63
2021/08/03 09:58:58;;;;;;;4.18;1.30;;;;;;;22.94;46.10;100144.44;5025554;28;20053;-62
2021/08/03 10:01:27;;;;;;;3.60;0.93;;;;;;;22.97;42.52;100140.44;5032676;28;20112;-61
2021/08/03 10:03:58;;;;;;;3.03;1.27;;;;;;;23.36;43.45;100139.09;5041035;28;20049;-62
2021/08/03 10:06:25;;;;;;;6.70;1.00;;;;;;;23.42;42.95;100135.44;5030514;28;20562;-62
2021/08/03 10:08:52;;;;;;;2.75;1.38;;;;;;;23.72;40.92;100127.25;5047455;28;20056;-63
2021/08/03 10:11:20;;;;;;;5.28;1.17;;;;;;;23.41;42.31;100136.50;5030392;28;20515;-63
2021/08/03 10:13:47;;;;;;;5.03;1.30;;;;;;;23.12;41.29;100134.56;5033118;28;20052;-61
2021/08/03 10:16:14;;;;;;;3.03;1.30;;;;;;;22.80;42.88;100137.41;5029809;28;20092;-62
2021/08/03 10:18:42;;;;;;;4.20;1.63;;;;;;;22.38;44.31;100139.09;5029785;28;20042;-62
2021/08/03 10:21:18;;;;;;;5.05;1.10;;;;;;;22.15;45.35;100129.59;5032806;28;20498;-62
2021/08/03 10:23:46;;;;;;;3.22;1.10;;;;;;;22.05;44.65;100133.84;5041735;28;20509;-63
2021/08/03 10:26:14;;;;;;;2.58;1.10;;;;;;;22.17;45.45;100132.09;5038077;28;20108;-62
2021/08/03 10:28:40;;;;;;;2.92;1.30;;;;;;;22.59;44.82;100129.63;5034693;28;20049;-63
2021/08/03 10:31:39;;;;;;;3.45;1.30;;;;;;;22.29;42.27;100124.03;5030277;28;20065;-60
2021/08/03 10:34:06;;;;;;;3.72;1.20;;;;;;;22.88;41.99;100125.38;5031472;28;20137;-62
2021/08/03 10:36:51;;;;;;;3.80;1.70;;;;;;;22.66;43.89;100124.94;5042113;28;20046;-62
2021/08/03 10:39:20;;;;;;;2.90;1.20;;;;;;;22.63;44.48;100120.75;5028989;28;20499;-61
2021/08/03 10:42:11;;;;;;;4.03;1.10;;;;;;;22.39;45.90;100119.72;5029148;28;20045;-60
2021/08/03 10:44:43;;;;;;;2.38;1.20;;;;;;;21.98;45.91;100124.84;5024830;28;20048;-62
2021/08/03 10:47:44;;;;;;;4.25;1.30;;;;;;;21.72;45.98;100117.69;5036808;28;20049;-63
2021/08/03 10:50:12;;;;;;;2.47;1.30;;;;;;;21.83;47.79;100114.25;5029467;28;20057;-62
2021/08/03 10:52:58;;;;;;;3.00;1.02;;;;;;;22.07;47.23;100110.72;5032832;28;20532;-62
2021/08/03 10:55:37;;;;;;;5.13;1.60;;;;;;;22.01;47.87;100110.72;5036513;28;20049;-62
2021/08/03 10:58:23;;;;;;;3.90;1.60;;;;;;;22.64;45.88;100106.00;5029385;28;20064;-61
2021/08/03 11:00:52;;;;;;;4.82;1.50;;;;;;;22.57;44.76;100112.59;5027836;28;20052;-65
2021/08/03 11:03:44;;;;;;;4.32;1.90;;;;;;;22.17;44.95;100107.50;5032177;28;20495;-62
2021/08/03 11:06:35;;;;;;;2.75;1.33;;;;;;;22.55;43.96;100107.34;5028828;28;20045;-62
2021/08/03 11:09:32;;;;;;;3.88;1.58;;;;;;;22.64;44.55;100102.44;5036452;28;20100;-61
2021/08/03 11:12:32;;;;;;;2.33;1.30;;;;;;;22.58;45.63;100098.69;5024315;28;20242;-62
2021/08/03 11:14:59;;;;;;;2.53;1.10;;;;;;;22.34;45.12;100094.94;5031205;28;20069;-62
2021/08/03 11:17:49;;;;;;;2.80;1.10;;;;;;;22.30;43.88;100090.97;5030815;28;20081;-63
2021/08/03 11:21:09;;;;;;;4.68;1.50;;;;;;;22.15;47.87;100083.13;5026286;28;20462;-63
2021/08/03 11:24:06;;;;;;;4.28;1.55;;;;;;;21.97;46.19;100080.28;5029183;28;20049;-64
2021/08/03 11:26:38;;;;;;;4.53;1.58;;;;;;;21.97;46.16;100076.72;5031962;28;20064;-63
2021/08/03 11:29:09;;;;;;;2.75;1.38;;;;;;;21.64;46.26;100082.44;5029764;28;20049;-64
2021/08/03 11:31:52;;;;;;;3.72;1.73;;;;;;;22.04;46.52;100078.34;5027475;28;20447;-61
2021/08/03 11:34:28;;;;;;;2.10;1.40;;;;;;;22.37;43.62;100071.75;5029951;28;20103;-61
2021/08/03 11:37:10;;;;;;;1.90;1.23;;;;;;;22.52;42.69;100072.25;5027831;28;20495;-63